KPIB/PIB METAR and TAF weather

Enter ICAO airport designator
Station Type Date Time Source
KPIB METAR 2019/09/21 20:56 UTC NOAA

KPIB 212056Z AUTO 09007KT 10SM CLR 30/19 A3013 RMK AO2 SLP199 T03000189 56020


Station Type Date Time Source
KPIB Decoded METAR 2019/09/21 20:56 UTC NOAA

Hattiesburg/Laurel, Hattiesburg-Laurel Regional Airport, MS, United States (KPIB) 31-28N 089-20W
Sep 21, 2019 - 04:56 PM EDT / 2019.09.21 2056 UTC
Wind: from the E (090 degrees) at 8 MPH (7 KT):0
Visibility: 10 mile(s):0
Sky conditions: clear
Temperature: 86.0 F (30.0 C)
Dew Point: 66.0 F (18.9 C)
Relative Humidity: 51%
Pressure (altimeter): 30.13 in. Hg (1020 hPa)
Pressure tendency: 0.06 inches (2.0 hPa) lower than three hours ago
ob: KPIB 212056Z AUTO 09007KT 10SM CLR 30/19 A3013 RMK AO2 SLP199 T03000189 56020
cycle: 21

Station Type Date Time Source
KPIB TAF 2019/09/21 18:21 UTC NOAA

TAF KPIB 211720Z 2118/2218 11009KT P6SM FEW060

Example: see airport list